createdAt,value
2018-03-15T00:00:14.387Z,4.46
2018-03-15T00:01:14.373Z,4.41
2018-03-15T00:02:14.341Z,4.34
2018-03-15T00:03:14.321Z,4.41
2018-03-15T00:04:14.307Z,4.43
2018-03-15T00:05:14.275Z,4.60
2018-03-15T00:06:14.257Z,4.56
2018-03-15T00:07:14.239Z,4.53
2018-03-15T00:08:14.215Z,4.56
2018-03-15T00:09:14.189Z,4.53
2018-03-15T00:10:14.169Z,4.42
2018-03-15T00:11:14.150Z,4.39
2018-03-15T00:12:14.132Z,4.39
2018-03-15T00:13:14.109Z,4.42
2018-03-15T00:14:14.079Z,4.38
2018-03-15T00:15:14.062Z,4.38
2018-03-15T00:16:14.039Z,4.38
2018-03-15T00:17:14.018Z,4.35
2018-03-15T00:18:14.000Z,4.35
2018-03-15T00:19:13.982Z,4.35
2018-03-15T00:20:13.961Z,4.26
2018-03-15T00:21:13.935Z,4.23
2018-03-15T00:22:13.911Z,4.12
2018-03-15T00:23:13.891Z,4.06
2018-03-15T00:24:13.873Z,4.13
2018-03-15T00:25:13.843Z,4.13
2018-03-15T00:26:13.819Z,4.16
2018-03-15T00:27:13.799Z,4.18
2018-03-15T00:28:13.779Z,4.28
2018-03-15T00:29:13.753Z,4.36
2018-03-15T00:30:13.738Z,4.34
2018-03-15T00:31:13.717Z,4.30
2018-03-15T00:32:13.691Z,4.26
2018-03-15T00:33:13.669Z,4.20
2018-03-15T00:34:13.649Z,4.20
2018-03-15T00:35:13.629Z,4.06
2018-03-15T00:36:13.611Z,4.17
2018-03-15T00:37:13.579Z,4.17
2018-03-15T00:38:13.559Z,4.26
2018-03-15T00:39:13.589Z,4.26
2018-03-15T00:40:13.524Z,4.24
2018-03-15T00:41:13.493Z,4.10
2018-03-15T00:42:13.470Z,4.13
2018-03-15T00:43:13.452Z,4.17
2018-03-15T00:44:13.438Z,4.16
2018-03-15T00:45:13.408Z,4.13
2018-03-15T00:46:13.385Z,4.16
2018-03-15T00:47:13.369Z,4.20
2018-03-15T00:48:13.339Z,4.13
2018-03-15T00:49:13.320Z,4.06
2018-03-15T00:50:13.304Z,4.06
2018-03-15T00:51:13.280Z,4.12
2018-03-15T00:52:13.260Z,4.06
2018-03-15T00:53:13.237Z,4.05
2018-03-15T00:54:13.209Z,4.09
2018-03-15T00:55:13.187Z,4.03
2018-03-15T00:56:13.170Z,4.10
2018-03-15T00:57:13.148Z,4.09
2018-03-15T00:58:13.131Z,4.08
2018-03-15T00:59:13.149Z,4.09
2018-03-15T01:00:13.090Z,4.03
2018-03-15T01:01:13.060Z,4.00
2018-03-15T01:02:13.034Z,4.05
2018-03-15T01:03:13.020Z,4.10
2018-03-15T01:04:12.993Z,4.08
2018-03-15T01:05:12.968Z,4.13
2018-03-15T01:06:12.947Z,4.20
2018-03-15T01:07:12.930Z,4.08
2018-03-15T01:08:12.902Z,4.10
2018-03-15T01:09:12.880Z,4.10
2018-03-15T01:10:12.858Z,4.21
2018-03-15T01:11:12.838Z,4.31
2018-03-15T01:12:12.818Z,4.28
2018-03-15T01:13:12.798Z,4.35
2018-03-15T01:14:12.792Z,4.31
2018-03-15T01:15:12.748Z,4.26
2018-03-15T01:16:12.728Z,4.21
2018-03-15T01:17:12.708Z,4.09
2018-03-15T01:18:12.690Z,4.06
2018-03-15T01:19:12.670Z,4.06
2018-03-15T01:20:12.639Z,4.03
2018-03-15T01:21:12.619Z,3.96
2018-03-15T01:22:12.600Z,3.96
2018-03-15T01:23:12.576Z,3.92
2018-03-15T01:24:12.568Z,4.02
2018-03-15T01:25:12.529Z,4.00
2018-03-15T01:26:12.506Z,3.92
2018-03-15T01:27:12.498Z,3.99
2018-03-15T01:28:12.498Z,3.98
2018-03-15T01:29:12.451Z,3.88
2018-03-15T01:30:12.493Z,3.91
2018-03-15T01:31:12.448Z,3.94
2018-03-15T01:32:12.452Z,3.85
2018-03-15T01:33:12.402Z,3.92
2018-03-15T01:34:12.336Z,3.94
2018-03-15T01:35:12.310Z,3.88
2018-03-15T01:36:12.288Z,4.05
2018-03-15T01:37:12.273Z,4.02
2018-03-15T01:38:12.247Z,3.96
2018-03-15T01:39:12.224Z,3.90
2018-03-15T01:40:12.204Z,3.94
2018-03-15T01:41:12.179Z,3.88
2018-03-15T01:42:12.159Z,3.87
2018-03-15T01:43:12.146Z,3.90
2018-03-15T01:44:12.115Z,3.92
2018-03-15T01:45:12.089Z,3.85
2018-03-15T01:46:12.069Z,3.98
2018-03-15T01:47:12.052Z,4.02
2018-03-15T01:48:12.026Z,4.02
2018-03-15T01:49:12.000Z,3.98
2018-03-15T01:50:11.981Z,3.91
2018-03-15T01:51:11.958Z,3.91
2018-03-15T01:52:11.948Z,3.88
2018-03-15T01:53:11.917Z,3.91
2018-03-15T01:54:11.891Z,3.92
2018-03-15T01:55:11.885Z,3.85
2018-03-15T01:56:11.856Z,3.87
2018-03-15T01:57:11.824Z,3.91
2018-03-15T01:58:11.802Z,3.96
2018-03-15T01:59:11.779Z,3.92
2018-03-15T02:00:11.758Z,3.90
2018-03-15T02:01:11.733Z,3.91
2018-03-15T02:02:11.713Z,3.92
2018-03-15T02:03:11.693Z,3.96
2018-03-15T02:04:11.665Z,3.91
2018-03-15T02:05:11.654Z,3.99
2018-03-15T02:06:11.628Z,3.99
2018-03-15T02:07:11.610Z,3.91
2018-03-15T02:08:11.579Z,3.91
2018-03-15T02:09:11.556Z,3.91
2018-03-15T02:10:11.542Z,3.87
2018-03-15T02:11:11.510Z,3.87
2018-03-15T02:12:11.542Z,3.91
2018-03-15T02:13:11.471Z,3.94
2018-03-15T02:14:11.450Z,3.94
2018-03-15T02:15:11.433Z,3.96
2018-03-15T02:16:11.405Z,3.98
2018-03-15T02:17:11.377Z,4.03
2018-03-15T02:18:11.365Z,3.96
2018-03-15T02:19:11.332Z,4.03
2018-03-15T02:20:11.310Z,4.00
2018-03-15T02:21:11.296Z,3.96
2018-03-15T02:22:11.269Z,4.05
2018-03-15T02:23:11.262Z,4.02
2018-03-15T02:24:11.222Z,3.99
2018-03-15T02:25:11.199Z,3.96
2018-03-15T02:26:11.183Z,3.94
2018-03-15T02:27:11.158Z,3.96
2018-03-15T02:28:11.135Z,4.02
2018-03-15T02:29:11.109Z,3.99
2018-03-15T02:30:11.089Z,3.88
2018-03-15T02:31:11.066Z,3.88
2018-03-15T02:32:11.048Z,4.02
2018-03-15T02:33:11.020Z,3.90
2018-03-15T02:34:10.999Z,3.91
2018-03-15T02:35:10.982Z,3.92
2018-03-15T02:36:10.958Z,3.90
2018-03-15T02:37:10.934Z,3.87
2018-03-15T02:38:10.909Z,3.91
2018-03-15T02:39:10.889Z,3.84
2018-03-15T02:40:10.872Z,3.85
2018-03-15T02:41:10.842Z,3.84
2018-03-15T02:42:10.819Z,3.87
2018-03-15T02:43:10.802Z,3.90
2018-03-15T02:44:10.782Z,3.90
2018-03-15T02:45:10.766Z,3.90
2018-03-15T02:46:10.731Z,3.88
2018-03-15T02:47:10.712Z,3.88
2018-03-15T02:48:10.686Z,3.92
2018-03-15T02:49:10.663Z,3.90
2018-03-15T02:50:10.642Z,3.92
2018-03-15T02:51:10.625Z,3.87
2018-03-15T02:52:10.599Z,3.84
2018-03-15T02:53:10.581Z,3.88
2018-03-15T02:54:10.553Z,3.98
2018-03-15T02:55:10.534Z,3.94
2018-03-15T02:56:10.514Z,3.99
2018-03-15T02:57:10.494Z,3.88
2018-03-15T02:58:10.462Z,3.87
2018-03-15T02:59:10.490Z,3.91
2018-03-15T03:00:10.420Z,3.91
2018-03-15T03:01:10.397Z,3.90
2018-03-15T03:02:10.377Z,3.90
2018-03-15T03:03:10.395Z,3.85
2018-03-15T03:04:10.329Z,3.82
2018-03-15T03:05:10.304Z,3.76
2018-03-15T03:06:10.289Z,3.84
2018-03-15T03:07:10.263Z,3.87
2018-03-15T03:08:10.236Z,3.94
2018-03-15T03:09:10.266Z,3.82
2018-03-15T03:10:10.201Z,3.73
2018-03-15T03:11:10.169Z,3.81
2018-03-15T03:12:10.152Z,3.73
2018-03-15T03:13:10.136Z,3.74
2018-03-15T03:14:10.108Z,3.84
2018-03-15T03:15:10.087Z,3.70
2018-03-15T03:16:10.109Z,3.81
2018-03-15T03:17:10.040Z,3.72
2018-03-15T03:18:10.011Z,3.64
2018-03-15T03:19:09.991Z,3.64
2018-03-15T03:20:09.979Z,3.66
2018-03-15T03:21:09.962Z,3.73
2018-03-15T03:22:09.972Z,3.69
2018-03-15T03:23:09.900Z,3.73
2018-03-15T03:24:09.878Z,3.81
2018-03-15T03:25:09.860Z,3.76
2018-03-15T03:26:09.834Z,3.85
2018-03-15T03:27:09.811Z,3.73
2018-03-15T03:28:09.812Z,3.67
2018-03-15T03:29:09.767Z,3.66
2018-03-15T03:30:09.752Z,3.67
2018-03-15T03:31:09.726Z,3.69
2018-03-15T03:32:09.707Z,3.81
2018-03-15T03:33:09.676Z,3.91
2018-03-15T03:34:09.664Z,3.85
2018-03-15T03:35:09.644Z,3.70
2018-03-15T03:36:09.610Z,3.69
2018-03-15T03:37:09.590Z,3.63
2018-03-15T03:38:09.573Z,3.73
2018-03-15T03:39:09.542Z,3.72
2018-03-15T03:40:09.521Z,3.85
2018-03-15T03:41:09.501Z,3.81
2018-03-15T03:42:09.481Z,3.81
2018-03-15T03:43:09.456Z,3.70
2018-03-15T03:44:09.430Z,3.66
2018-03-15T03:45:09.410Z,3.63
2018-03-15T03:46:09.387Z,3.64
2018-03-15T03:47:09.358Z,3.72
2018-03-15T03:48:09.343Z,3.70
2018-03-15T03:49:09.316Z,3.76
2018-03-15T03:50:09.292Z,3.70
2018-03-15T03:51:09.271Z,3.78
2018-03-15T03:52:09.249Z,3.76
2018-03-15T03:53:09.228Z,3.67
2018-03-15T03:54:09.207Z,3.63
2018-03-15T03:55:09.184Z,3.74
2018-03-15T03:56:09.161Z,3.63
2018-03-15T03:57:09.142Z,3.66
2018-03-15T03:58:09.112Z,3.64
2018-03-15T03:59:09.090Z,3.66
2018-03-15T04:00:09.071Z,3.67
2018-03-15T04:01:09.046Z,3.70
2018-03-15T04:02:09.024Z,3.67
2018-03-15T04:03:09.001Z,3.67
2018-03-15T04:04:08.976Z,3.59
2018-03-15T04:05:08.960Z,3.54
2018-03-15T04:06:08.930Z,3.55
2018-03-15T04:07:08.910Z,3.63
2018-03-15T04:08:08.887Z,3.62
2018-03-15T04:09:08.864Z,3.67
2018-03-15T04:10:08.884Z,3.67
2018-03-15T04:11:08.819Z,3.72
2018-03-15T04:12:08.802Z,3.63
2018-03-15T04:13:08.780Z,3.66
2018-03-15T04:14:08.845Z,3.74
2018-03-15T04:15:08.729Z,3.82
2018-03-15T04:16:08.832Z,3.85
2018-03-15T04:17:08.689Z,3.76
2018-03-15T04:18:08.664Z,3.76
2018-03-15T04:19:08.640Z,3.73
2018-03-15T04:20:08.623Z,3.73
2018-03-15T04:21:08.595Z,3.78
2018-03-15T04:22:08.568Z,3.84
2018-03-15T04:23:08.550Z,3.85
2018-03-15T04:24:08.526Z,3.76
2018-03-15T04:25:08.501Z,3.67
2018-03-15T04:26:08.477Z,3.76
2018-03-15T04:27:08.462Z,3.63
2018-03-15T04:28:08.439Z,3.69
2018-03-15T04:29:08.420Z,3.63
2018-03-15T04:30:08.390Z,3.64
2018-03-15T04:31:08.372Z,3.66
2018-03-15T04:32:08.353Z,3.69
2018-03-15T04:33:08.321Z,3.84
2018-03-15T04:34:08.302Z,3.74
2018-03-15T04:35:08.280Z,3.81
2018-03-15T04:36:08.257Z,3.66
2018-03-15T04:37:08.233Z,3.73
2018-03-15T04:38:08.210Z,3.63
2018-03-15T04:39:08.190Z,3.78
2018-03-15T04:40:08.169Z,3.74
2018-03-15T04:41:08.139Z,3.72
2018-03-15T04:42:08.120Z,3.82
2018-03-15T04:43:08.095Z,3.76
2018-03-15T04:44:08.074Z,3.70
2018-03-15T04:45:08.049Z,3.81
2018-03-15T04:46:08.030Z,3.81
2018-03-15T04:47:08.004Z,3.81
2018-03-15T04:48:07.991Z,3.78
2018-03-15T04:49:07.960Z,3.73
2018-03-15T04:50:07.940Z,3.85
2018-03-15T04:51:07.922Z,3.73
2018-03-15T04:52:07.892Z,3.62
2018-03-15T04:53:07.870Z,3.69
2018-03-15T04:54:07.846Z,3.63
2018-03-15T04:55:07.823Z,3.66
2018-03-15T04:56:07.801Z,3.63
2018-03-15T04:57:07.780Z,3.63
2018-03-15T04:58:07.760Z,3.69
2018-03-15T04:59:07.743Z,3.64
2018-03-15T05:00:07.709Z,3.70
2018-03-15T05:01:07.689Z,3.64
2018-03-15T05:02:07.669Z,3.63
2018-03-15T05:03:07.646Z,3.63
2018-03-15T05:04:07.625Z,3.69
2018-03-15T05:05:07.598Z,3.67
2018-03-15T05:06:07.579Z,3.64
2018-03-15T05:07:07.559Z,3.62
2018-03-15T05:08:07.541Z,3.66
2018-03-15T05:09:07.513Z,3.64
2018-03-15T05:10:07.484Z,3.67
2018-03-15T05:11:07.467Z,3.66
2018-03-15T05:12:07.440Z,3.62
2018-03-15T05:13:07.418Z,3.69
2018-03-15T05:14:07.401Z,3.55
2018-03-15T05:15:07.373Z,3.55
2018-03-15T05:17:07.331Z,3.55
2018-03-15T05:18:07.302Z,3.64
2018-03-15T05:19:07.280Z,3.67
2018-03-15T05:20:07.263Z,3.64
2018-03-15T05:21:07.236Z,3.63
2018-03-15T05:22:07.214Z,3.66
2018-03-15T05:23:07.191Z,3.67
2018-03-15T05:24:07.167Z,3.66
2018-03-15T05:25:07.170Z,3.63
2018-03-15T05:26:07.121Z,3.67
2018-03-15T05:27:07.102Z,3.64
2018-03-15T05:28:07.083Z,3.69
2018-03-15T05:29:07.059Z,3.67
2018-03-15T05:30:07.031Z,3.67
2018-03-15T05:31:07.059Z,3.63
2018-03-15T05:32:06.983Z,3.62
2018-03-15T05:33:06.961Z,3.66
2018-03-15T05:34:06.944Z,3.63
2018-03-15T05:35:06.919Z,3.52
2018-03-15T05:36:06.903Z,3.44
2018-03-15T05:37:06.870Z,3.56
2018-03-15T05:38:06.845Z,3.56
2018-03-15T05:39:06.826Z,3.54
2018-03-15T05:40:06.804Z,3.56
2018-03-15T05:41:06.779Z,3.60
2018-03-15T05:42:06.760Z,3.60
2018-03-15T05:43:06.733Z,3.62
2018-03-15T05:44:06.716Z,3.59
2018-03-15T05:45:06.691Z,3.64
2018-03-15T05:46:06.670Z,3.63
2018-03-15T05:47:06.700Z,3.62
2018-03-15T05:48:06.620Z,3.55
2018-03-15T05:49:06.652Z,3.52
2018-03-15T05:50:06.580Z,3.66
2018-03-15T05:51:06.549Z,3.54
2018-03-15T05:52:06.531Z,3.56
2018-03-15T05:53:06.504Z,3.56
2018-03-15T05:54:06.480Z,3.59
2018-03-15T05:55:06.458Z,3.60
2018-03-15T05:56:06.442Z,3.63
2018-03-15T05:57:06.418Z,3.66
2018-03-15T05:58:06.389Z,3.66
2018-03-15T05:59:06.369Z,3.63
2018-03-15T06:00:06.346Z,3.56
2018-03-15T06:01:06.323Z,3.67
2018-03-15T06:02:06.301Z,3.62
2018-03-15T06:03:06.278Z,3.67
2018-03-15T06:04:06.255Z,3.64
2018-03-15T06:05:06.228Z,3.66
2018-03-15T06:06:06.210Z,3.54
2018-03-15T06:07:06.188Z,3.69
2018-03-15T06:08:06.161Z,3.62
2018-03-15T06:09:06.140Z,3.59
2018-03-15T06:10:06.120Z,3.59
2018-03-15T06:11:06.098Z,3.55
2018-03-15T06:12:06.071Z,3.67
2018-03-15T06:13:06.047Z,3.63
2018-03-15T06:14:06.030Z,3.62
2018-03-15T06:15:06.008Z,3.66
2018-03-15T06:16:05.993Z,3.67
2018-03-15T06:17:05.957Z,3.64
2018-03-15T06:18:05.936Z,3.76
2018-03-15T06:19:05.919Z,3.73
2018-03-15T06:20:05.891Z,3.78
2018-03-15T06:21:05.868Z,3.78
2018-03-15T06:22:05.851Z,3.84
2018-03-15T06:23:05.819Z,3.85
2018-03-15T06:24:05.798Z,3.91
2018-03-15T06:25:05.781Z,3.88
2018-03-15T06:26:05.750Z,3.99
2018-03-15T06:27:05.731Z,3.92
2018-03-15T06:28:05.708Z,3.91
2018-03-15T06:29:05.682Z,3.92
2018-03-15T06:30:05.667Z,3.98
2018-03-15T06:31:05.640Z,3.92
2018-03-15T06:32:05.616Z,3.92
2018-03-15T06:33:05.599Z,3.96
2018-03-15T06:34:05.590Z,3.94
2018-03-15T06:35:05.622Z,3.99
2018-03-15T06:36:05.529Z,4.06
2018-03-15T06:37:05.515Z,4.06
2018-03-15T06:38:05.484Z,4.10
2018-03-15T06:39:05.470Z,4.09
2018-03-15T06:40:05.439Z,4.10
2018-03-15T06:41:05.412Z,4.06
2018-03-15T06:42:05.396Z,4.21
2018-03-15T06:43:05.370Z,4.21
2018-03-15T06:44:05.349Z,4.20
2018-03-15T06:45:05.332Z,4.35
2018-03-15T06:46:05.309Z,4.35
2018-03-15T06:47:05.282Z,4.31
2018-03-15T06:48:05.266Z,4.34
2018-03-15T06:49:05.239Z,4.34
2018-03-15T06:50:05.217Z,4.42
2018-03-15T06:51:05.203Z,4.59
2018-03-15T06:52:05.176Z,4.66
2018-03-15T06:53:05.148Z,4.77
2018-03-15T06:54:05.126Z,5.12
2018-03-15T06:55:05.108Z,5.36
2018-03-15T06:56:05.089Z,5.51
2018-03-15T06:57:05.063Z,5.69
2018-03-15T06:58:05.043Z,5.84
2018-03-15T06:59:05.030Z,5.94
2018-03-15T07:00:05.014Z,6.21
2018-03-15T07:01:04.986Z,6.24
2018-03-15T07:02:04.969Z,6.43
2018-03-15T07:03:04.956Z,6.63
2018-03-15T07:04:04.927Z,6.55
2018-03-15T07:05:04.910Z,6.64
2018-03-15T07:06:04.886Z,6.37
2018-03-15T07:07:04.874Z,6.60
2018-03-15T07:08:04.860Z,6.53
2018-03-15T07:09:04.842Z,6.93
2018-03-15T07:10:04.821Z,7.16
2018-03-15T07:11:04.812Z,7.08
2018-03-15T07:12:04.791Z,7.06
2018-03-15T07:13:04.772Z,7.07
2018-03-15T07:14:04.760Z,7.24
2018-03-15T07:15:04.744Z,7.24
2018-03-15T07:16:04.730Z,7.42
2018-03-15T07:17:04.721Z,7.71
2018-03-15T07:18:04.701Z,7.03
2018-03-15T07:19:04.686Z,6.91
2018-03-15T07:20:04.670Z,7.06
2018-03-15T07:21:04.667Z,7.04
2018-03-15T07:22:04.659Z,7.11
2018-03-15T07:23:04.642Z,7.37
2018-03-15T07:24:04.619Z,7.28
2018-03-15T07:25:04.603Z,7.21
2018-03-15T07:26:04.600Z,7.40
2018-03-15T07:27:04.591Z,7.77
2018-03-15T07:28:04.580Z,7.78
2018-03-15T07:29:04.570Z,7.60
2018-03-15T07:30:04.550Z,7.74
2018-03-15T07:31:04.541Z,8.23
2018-03-15T07:32:04.539Z,8.38
2018-03-15T07:33:04.520Z,8.10
2018-03-15T07:34:04.509Z,7.95
2018-03-15T07:35:04.498Z,8.31
2018-03-15T07:36:04.495Z,8.20
2018-03-15T07:37:04.490Z,7.73
2018-03-15T07:38:04.472Z,8.04
2018-03-15T07:39:04.475Z,8.16
2018-03-15T07:40:04.458Z,8.29
2018-03-15T07:41:04.449Z,8.52
2018-03-15T07:42:04.440Z,8.04
2018-03-15T07:43:04.445Z,8.63
2018-03-15T07:44:04.423Z,8.72
2018-03-15T07:45:04.423Z,9.04
2018-03-15T07:46:04.419Z,9.06
2018-03-15T07:47:04.401Z,9.60
2018-03-15T07:48:04.405Z,9.04
2018-03-15T07:49:04.389Z,9.44
2018-03-15T07:50:04.378Z,9.42
2018-03-15T07:51:04.381Z,9.60
2018-03-15T07:52:04.381Z,9.44
2018-03-15T07:53:04.365Z,9.42
2018-03-15T07:54:04.351Z,9.52
2018-03-15T07:55:04.346Z,9.40
2018-03-15T07:56:04.344Z,10.54
2018-03-15T07:57:04.332Z,10.95
2018-03-15T07:58:04.330Z,10.93
2018-03-15T07:59:04.320Z,11.91
2018-03-15T08:00:04.320Z,11.84
2018-03-15T08:01:04.312Z,11.49
2018-03-15T08:02:04.328Z,11.73
2018-03-15T08:03:04.311Z,12.11
2018-03-15T08:04:04.289Z,11.41
2018-03-15T08:05:04.284Z,11.64
2018-03-15T08:06:04.278Z,12.35
2018-03-15T08:07:04.280Z,11.18
2018-03-15T08:08:04.271Z,10.64
2018-03-15T08:09:04.268Z,11.37
2018-03-15T08:10:04.261Z,12.26
2018-03-15T08:11:04.250Z,12.47
2018-03-15T08:12:04.247Z,11.46
2018-03-15T08:13:04.240Z,11.66
2018-03-15T08:14:04.240Z,11.31
2018-03-15T08:15:04.230Z,11.82
2018-03-15T08:16:04.338Z,12.58
2018-03-15T08:17:04.222Z,13.72
2018-03-15T08:18:04.217Z,12.55
2018-03-15T08:19:04.209Z,12.95
2018-03-15T08:20:04.207Z,13.55
2018-03-15T08:21:04.197Z,13.98
2018-03-15T08:22:04.193Z,14.52
2018-03-15T08:23:04.187Z,14.79
2018-03-15T08:24:04.237Z,12.98
2018-03-15T08:25:04.176Z,12.41
2018-03-15T08:26:04.174Z,12.63
2018-03-15T08:27:04.170Z,11.59
2018-03-15T08:28:04.163Z,11.87
2018-03-15T08:29:04.160Z,12.79
2018-03-15T08:30:04.157Z,12.14
2018-03-15T08:31:04.157Z,12.93
2018-03-15T08:32:04.145Z,13.06
2018-03-15T08:33:04.140Z,12.30
2018-03-15T08:34:04.136Z,12.46
2018-03-15T08:35:04.135Z,12.55
2018-03-15T08:36:04.126Z,12.71
2018-03-15T08:37:04.127Z,13.61
2018-03-15T08:38:04.125Z,14.83
2018-03-15T08:39:04.115Z,14.44
2018-03-15T08:40:04.117Z,14.55
2018-03-15T08:41:04.112Z,14.31
2018-03-15T08:42:04.113Z,14.79
2018-03-15T08:43:04.114Z,14.08
2018-03-15T08:44:04.096Z,14.73
2018-03-15T08:45:04.097Z,13.60
2018-03-15T08:46:04.084Z,12.99
2018-03-15T08:47:04.148Z,13.72
2018-03-15T08:48:04.084Z,14.21
2018-03-15T08:49:04.107Z,14.36
2018-03-15T08:50:04.079Z,13.96
2018-03-15T08:51:04.109Z,13.65
2018-03-15T08:52:04.065Z,13.19
2018-03-15T08:53:04.095Z,13.82
2018-03-15T08:54:04.056Z,13.85
2018-03-15T08:55:04.104Z,14.26
2018-03-15T08:56:04.044Z,13.55
2018-03-15T08:57:04.040Z,12.58
2018-03-15T08:58:04.035Z,12.63
2018-03-15T08:59:04.034Z,13.39
2018-03-15T09:00:04.035Z,12.96
2018-03-15T09:01:04.022Z,14.16
2018-03-15T09:02:04.016Z,14.36
2018-03-15T09:03:04.045Z,14.67
2018-03-15T09:04:04.005Z,13.55
2018-03-15T09:05:04.143Z,13.30
2018-03-15T09:06:04.019Z,14.11
2018-03-15T09:07:03.992Z,14.01
2018-03-15T09:08:03.986Z,13.73
2018-03-15T09:09:03.987Z,13.42
2018-03-15T09:10:03.980Z,13.82
2018-03-15T09:11:04.020Z,13.90
2018-03-15T09:12:03.964Z,13.79
2018-03-15T09:13:03.957Z,13.39
2018-03-15T09:14:03.957Z,12.96
2018-03-15T09:15:03.951Z,12.87
2018-03-15T09:16:03.946Z,13.64
2018-03-15T09:17:03.950Z,13.73
2018-03-15T09:18:04.041Z,14.77
2018-03-15T09:19:03.930Z,13.98
2018-03-15T09:20:03.925Z,14.79
2018-03-15T09:21:03.918Z,14.69
2018-03-15T09:22:03.912Z,14.19
2018-03-15T09:23:03.910Z,14.61
2018-03-15T09:24:03.939Z,14.63
2018-03-15T09:25:03.890Z,14.55
2018-03-15T09:26:03.885Z,14.15
2018-03-15T09:27:03.878Z,14.18
2018-03-15T09:28:03.869Z,14.30
2018-03-15T09:29:03.872Z,15.17
2018-03-15T09:30:03.861Z,14.49
2018-03-15T09:31:03.866Z,14.77
2018-03-15T09:32:03.847Z,14.85
2018-03-15T09:33:03.838Z,14.23
2018-03-15T09:34:03.835Z,14.05
2018-03-15T09:35:03.831Z,14.03
2018-03-15T09:36:03.817Z,13.71
2018-03-15T09:37:03.809Z,13.61
2018-03-15T09:38:03.808Z,14.01
2018-03-15T09:39:03.798Z,14.49
2018-03-15T09:40:03.788Z,14.53
2018-03-15T09:41:03.780Z,14.63
2018-03-15T09:42:03.776Z,14.63
2018-03-15T09:43:03.768Z,14.63
2018-03-15T09:44:03.758Z,14.52
2018-03-15T09:45:03.752Z,14.33
2018-03-15T09:46:03.759Z,15.05
2018-03-15T09:47:03.743Z,14.77
2018-03-15T09:48:03.726Z,14.13
2018-03-15T09:49:03.720Z,13.53
2018-03-15T09:50:03.714Z,14.34
2018-03-15T09:51:03.701Z,15.20
2018-03-15T09:52:03.691Z,15.45
2018-03-15T09:53:03.686Z,15.88
2018-03-15T09:54:03.682Z,15.93
2018-03-15T09:55:03.671Z,16.54
2018-03-15T09:56:03.660Z,16.28
2018-03-15T09:57:03.651Z,15.85
2018-03-15T09:58:03.641Z,15.88
2018-03-15T09:59:03.632Z,15.54
2018-03-15T10:00:03.621Z,15.84
2018-03-15T10:01:03.613Z,15.62
2018-03-15T10:02:03.612Z,15.56
2018-03-15T10:03:03.603Z,16.05
2018-03-15T10:04:03.588Z,15.69
2018-03-15T10:05:03.586Z,15.48
2018-03-15T10:06:03.574Z,15.27
2018-03-15T10:07:03.558Z,14.97
2018-03-15T10:08:03.552Z,13.71
2018-03-15T10:09:03.559Z,13.45
2018-03-15T10:10:03.535Z,13.16
2018-03-15T10:11:03.527Z,13.58
2018-03-15T10:12:03.519Z,13.97
2018-03-15T10:13:03.501Z,14.33
2018-03-15T10:14:03.507Z,15.12
2018-03-15T10:15:03.485Z,14.40
2018-03-15T10:16:03.474Z,14.28
2018-03-15T10:17:03.462Z,14.56
2018-03-15T10:18:03.453Z,13.98
2018-03-15T10:19:03.443Z,13.65
2018-03-15T10:20:03.433Z,14.18
2018-03-15T10:21:03.428Z,13.68
2018-03-15T10:22:03.413Z,13.49
2018-03-15T10:23:03.404Z,13.86
2018-03-15T10:24:03.389Z,13.93
2018-03-15T10:25:13.608Z,13.26
2018-03-15T10:26:03.367Z,13.21
2018-03-15T10:27:03.363Z,12.69
2018-03-15T10:28:03.347Z,13.32
2018-03-15T10:29:03.337Z,13.23
2018-03-15T10:30:03.324Z,13.36
2018-03-15T10:31:03.337Z,13.55
2018-03-15T10:32:03.320Z,13.76
2018-03-15T10:33:03.291Z,14.23
2018-03-15T10:34:03.274Z,14.22
2018-03-15T10:35:03.264Z,13.45
2018-03-15T10:36:03.254Z,13.14
2018-03-15T10:37:03.243Z,13.09
2018-03-15T10:38:03.234Z,13.29
2018-03-15T10:39:03.219Z,13.05
2018-03-15T10:40:03.213Z,12.99
2018-03-15T10:41:03.196Z,13.30
2018-03-15T10:42:03.183Z,13.23
2018-03-15T10:43:03.182Z,13.38
2018-03-15T10:44:03.159Z,13.24
2018-03-15T10:45:03.187Z,13.14
2018-03-15T10:46:03.144Z,12.99
2018-03-15T10:47:03.122Z,13.01
2018-03-15T10:48:03.154Z,12.73
2018-03-15T10:49:03.105Z,12.93
2018-03-15T10:50:03.091Z,13.30
2018-03-15T10:51:03.077Z,13.72
2018-03-15T10:52:03.061Z,13.61
2018-03-15T10:53:03.047Z,13.97
2018-03-15T10:54:03.041Z,13.93
2018-03-15T10:55:03.023Z,13.85
2018-03-15T10:56:03.021Z,13.11
2018-03-15T10:57:03.003Z,12.83
2018-03-15T10:58:03.119Z,12.83
2018-03-15T10:59:02.983Z,12.61
2018-03-15T11:00:02.984Z,12.65
2018-03-15T11:01:02.962Z,12.61
2018-03-15T11:02:03.003Z,12.53
2018-03-15T11:03:02.929Z,12.15
2018-03-15T11:04:02.922Z,12.41
2018-03-15T11:05:02.906Z,12.61
2018-03-15T11:06:02.993Z,12.86
2018-03-15T11:07:02.879Z,12.87
2018-03-15T11:08:02.882Z,13.20
2018-03-15T11:09:02.851Z,12.77
2018-03-15T11:10:02.915Z,12.66
2018-03-15T11:11:02.831Z,12.48
2018-03-15T11:12:02.895Z,12.51
2018-03-15T11:13:02.800Z,12.26
2018-03-15T11:14:02.789Z,12.17
2018-03-15T11:15:02.774Z,12.66
2018-03-15T11:16:02.770Z,12.62
2018-03-15T11:17:02.746Z,12.44
2018-03-15T11:18:02.791Z,12.22
2018-03-15T11:19:02.727Z,12.48
2018-03-15T11:20:02.716Z,12.61
2018-03-15T11:21:02.702Z,12.68
2018-03-15T11:22:02.730Z,12.76
2018-03-15T11:23:02.666Z,12.81
2018-03-15T11:24:02.772Z,12.66
2018-03-15T11:25:02.638Z,12.98
2018-03-15T11:26:02.630Z,13.51
2018-03-15T11:27:02.622Z,13.54
2018-03-15T11:28:02.930Z,13.60
2018-03-15T11:29:02.584Z,13.80
2018-03-15T11:30:02.650Z,13.58
2018-03-15T11:31:02.559Z,13.58
2018-03-15T11:32:02.543Z,12.93
2018-03-15T11:33:02.530Z,13.23
2018-03-15T11:34:02.513Z,12.81
2018-03-15T11:35:02.502Z,12.96
2018-03-15T11:36:02.491Z,12.98
2018-03-15T11:37:02.472Z,12.69
2018-03-15T11:38:02.457Z,12.63
2018-03-15T11:39:02.446Z,12.99
2018-03-15T11:40:02.434Z,13.09
2018-03-15T11:41:02.421Z,12.80
2018-03-15T11:42:02.416Z,12.65
2018-03-15T11:43:02.403Z,12.76
2018-03-15T11:44:02.381Z,12.86
2018-03-15T11:45:02.367Z,12.84
2018-03-15T11:46:02.351Z,12.69
2018-03-15T11:47:02.352Z,12.76
2018-03-15T11:48:02.320Z,12.96
2018-03-15T11:49:02.310Z,12.81
2018-03-15T11:50:02.291Z,12.46
2018-03-15T11:51:02.276Z,12.33
2018-03-15T11:52:02.291Z,12.51
2018-03-15T11:53:02.250Z,12.65
2018-03-15T11:54:02.241Z,12.72
2018-03-15T11:55:02.220Z,12.71
2018-03-15T11:56:02.212Z,12.96
2018-03-15T11:57:02.189Z,12.99
2018-03-15T11:58:02.185Z,13.16
2018-03-15T11:59:02.158Z,13.57
2018-03-15T12:00:02.151Z,13.79
2018-03-15T12:01:02.138Z,13.93
2018-03-15T12:02:02.125Z,14.15
2018-03-15T12:03:02.104Z,14.13
2018-03-15T12:04:02.098Z,13.75
2018-03-15T12:05:02.080Z,13.32
2018-03-15T12:06:02.071Z,13.16
2018-03-15T12:07:02.049Z,13.16
2018-03-15T12:08:02.046Z,13.14
2018-03-15T12:09:02.032Z,13.14
2018-03-15T12:10:02.012Z,13.24
2018-03-15T12:11:01.999Z,13.14
2018-03-15T12:12:02.039Z,13.14
2018-03-15T12:13:01.974Z,13.55
2018-03-15T12:14:01.960Z,13.88
2018-03-15T12:15:01.943Z,13.46
2018-03-15T12:16:01.933Z,13.09
2018-03-15T12:17:01.926Z,13.27
2018-03-15T12:18:01.902Z,13.24
2018-03-15T12:19:01.904Z,13.17
2018-03-15T12:20:01.916Z,13.14
2018-03-15T12:21:01.856Z,13.17
2018-03-15T12:22:01.837Z,13.11
2018-03-15T12:23:01.823Z,13.04
2018-03-15T12:24:01.811Z,13.27
2018-03-15T12:25:01.799Z,13.46
2018-03-15T12:26:01.784Z,13.75
2018-03-15T12:27:01.774Z,13.60
2018-03-15T12:28:01.753Z,13.58
2018-03-15T12:29:01.750Z,13.45
2018-03-15T12:30:01.727Z,13.57
2018-03-15T12:31:01.779Z,13.72
2018-03-15T12:32:01.700Z,14.00
2018-03-15T12:33:01.691Z,14.13
2018-03-15T12:34:01.675Z,13.98
2018-03-15T12:35:01.663Z,13.68
2018-03-15T12:36:01.639Z,13.67
2018-03-15T12:37:01.631Z,13.63
2018-03-15T12:38:01.621Z,13.75
2018-03-15T12:39:01.599Z,13.88
2018-03-15T12:40:01.585Z,13.57
2018-03-15T12:41:01.631Z,13.55
2018-03-15T12:42:01.561Z,13.60
2018-03-15T12:43:01.595Z,13.55
2018-03-15T12:44:01.529Z,13.82
2018-03-15T12:45:01.515Z,14.11
2018-03-15T12:46:01.501Z,13.65
2018-03-15T12:47:01.518Z,13.32
2018-03-15T12:48:01.471Z,13.42
2018-03-15T12:49:01.561Z,13.30
2018-03-15T12:50:01.448Z,13.58
2018-03-15T12:51:01.430Z,13.60
2018-03-15T12:52:01.419Z,13.71
2018-03-15T12:53:01.500Z,13.98
2018-03-15T12:54:01.399Z,13.71
2018-03-15T12:55:01.473Z,13.72
2018-03-15T12:56:01.362Z,13.68
2018-03-15T12:57:01.404Z,13.35
2018-03-15T12:58:01.328Z,13.53
2018-03-15T12:59:01.317Z,13.49
2018-03-15T13:00:01.306Z,13.61
2018-03-15T13:01:01.295Z,13.76
2018-03-15T13:02:01.273Z,13.83
2018-03-15T13:03:01.258Z,13.68
2018-03-15T13:04:01.249Z,13.67
2018-03-15T13:05:01.231Z,13.71
2018-03-15T13:06:01.219Z,13.55
2018-03-15T13:07:01.205Z,13.57
2018-03-15T13:08:01.190Z,13.71
2018-03-15T13:09:01.183Z,14.01